createdAt,value
2019-02-28T00:02:29.855Z,1.00
2019-02-28T00:04:58.335Z,1.00
2019-02-28T00:07:34.610Z,1.00
2019-02-28T00:10:08.946Z,1.00
2019-02-28T00:12:40.050Z,0.90
2019-02-28T00:15:14.205Z,0.80
2019-02-28T00:17:45.617Z,0.80
2019-02-28T00:20:25.621Z,0.80
2019-02-28T00:22:56.746Z,0.70
2019-02-28T00:25:29.441Z,0.70
2019-02-28T00:27:57.862Z,0.70
2019-02-28T00:30:29.101Z,0.70
2019-02-28T00:32:59.372Z,0.60
2019-02-28T00:35:30.122Z,0.60
2019-02-28T00:38:04.381Z,0.60
2019-02-28T00:40:38.535Z,0.60
2019-02-28T00:43:10.242Z,0.60
2019-02-28T00:45:38.663Z,0.60
2019-02-28T00:48:07.382Z,0.60
2019-02-28T00:50:35.795Z,0.50
2019-02-28T00:53:11.709Z,0.50
2019-02-28T00:55:40.118Z,0.50
2019-02-28T00:58:08.537Z,0.50
2019-02-28T01:00:38.164Z,0.40
2019-02-28T01:03:08.538Z,0.40
2019-02-28T01:05:41.410Z,0.40
2019-02-28T01:08:12.713Z,0.40
2019-02-28T01:10:42.838Z,0.30
2019-02-28T01:13:42.894Z,0.30
2019-02-28T01:15:44.857Z,0.30
2019-02-28T01:18:19.183Z,0.30
2019-02-28T01:20:56.607Z,0.30
2019-02-28T01:23:30.463Z,0.30
2019-02-28T01:26:07.829Z,0.20
2019-02-28T01:28:40.019Z,0.20
2019-02-28T01:31:11.666Z,0.20
2019-02-28T01:33:42.593Z,0.20
2019-02-28T01:36:15.554Z,0.20
2019-02-28T01:38:51.908Z,0.20
2019-02-28T01:41:20.314Z,0.10
2019-02-28T01:43:51.850Z,0.10
2019-02-28T01:46:21.912Z,0.10
2019-02-28T01:48:55.218Z,0.10
2019-02-28T01:51:36.581Z,0.10
2019-02-28T01:54:05.778Z,0.10
2019-02-28T01:56:37.889Z,0.00
2019-02-28T01:59:12.585Z,0.00
2019-02-28T02:01:43.729Z,0.00
2019-02-28T02:04:17.935Z,0.00
2019-02-28T02:06:47.416Z,0.00
2019-02-28T02:09:20.226Z,0.00
2019-02-28T02:11:54.385Z,-0.10
2019-02-28T02:14:31.817Z,-0.10
2019-02-28T02:17:02.266Z,-0.10
2019-02-28T02:19:30.489Z,-0.20
2019-02-28T02:22:09.193Z,-0.20
2019-02-28T02:24:35.302Z,-0.20
2019-02-28T02:27:03.789Z,-0.20
2019-02-28T02:29:32.382Z,-0.20
2019-02-28T02:32:08.141Z,-0.20
2019-02-28T02:34:36.590Z,-0.20
2019-02-28T02:37:05.022Z,-0.30
2019-02-28T02:39:36.441Z,-0.30
2019-02-28T02:42:11.444Z,-0.30
2019-02-28T02:44:37.919Z,-0.30
2019-02-28T02:47:06.344Z,-0.30
2019-02-28T02:49:34.769Z,-0.30
2019-02-28T02:52:04.083Z,-0.40
2019-02-28T02:54:37.855Z,-0.40
2019-02-28T02:57:09.240Z,-0.40
2019-02-28T02:59:39.623Z,-0.40
2019-02-28T03:02:08.049Z,-0.40
2019-02-28T03:04:39.416Z,-0.40
2019-02-28T03:07:07.850Z,-0.40
2019-02-28T03:09:36.266Z,-0.40
2019-02-28T03:12:06.709Z,-0.50
2019-02-28T03:14:35.129Z,-0.40
2019-02-28T03:17:09.658Z,-0.50
2019-02-28T03:19:35.325Z,-0.50
2019-02-28T03:22:03.734Z,-0.60
2019-02-28T03:24:32.163Z,-0.60
2019-02-28T03:27:00.869Z,-0.60
2019-02-28T03:29:29.290Z,-0.60
2019-02-28T03:32:06.143Z,-0.70
2019-02-28T03:34:40.403Z,-0.70
2019-02-28T03:37:08.891Z,-0.80
2019-02-28T03:39:37.306Z,-0.70
2019-02-28T03:42:05.745Z,-0.80
2019-02-28T03:44:34.201Z,-0.80
2019-02-28T03:47:02.628Z,-0.80
2019-02-28T03:49:31.053Z,-0.80
2019-02-28T03:52:06.660Z,-0.80
2019-02-28T03:54:32.653Z,-0.80
2019-02-28T03:57:05.622Z,-0.80
2019-02-28T03:59:38.537Z,-0.80
2019-02-28T04:02:08.612Z,-0.80
2019-02-28T04:04:39.723Z,-0.80
2019-02-28T04:07:15.541Z,-0.80
2019-02-28T04:09:45.176Z,-0.80
2019-02-28T04:12:15.361Z,-0.80
2019-02-28T04:14:46.726Z,-0.90
2019-02-28T04:17:29.828Z,-0.90
2019-02-28T04:19:59.994Z,-0.90
2019-02-28T04:22:29.487Z,-0.90
2019-02-28T04:25:02.694Z,-0.90
2019-02-28T04:27:34.364Z,-0.90
2019-02-28T04:30:08.602Z,-0.90
2019-02-28T04:32:41.523Z,-0.90
2019-02-28T04:35:10.486Z,-0.90
2019-02-28T04:37:44.893Z,-0.90
2019-02-28T04:40:14.658Z,-1.00
2019-02-28T04:42:46.037Z,-1.00
2019-02-28T04:45:16.698Z,-1.10
2019-02-28T04:47:47.929Z,-1.10
2019-02-28T04:50:19.469Z,-1.10
2019-02-28T04:52:48.291Z,-1.10
2019-02-28T04:55:17.794Z,-1.10
2019-02-28T04:57:56.090Z,-1.10
2019-02-28T05:00:27.242Z,-1.10
2019-02-28T05:02:55.657Z,-1.10
2019-02-28T05:05:25.131Z,-1.10
2019-02-28T05:08:05.827Z,-1.00
2019-02-28T05:10:32.729Z,-0.70
2019-02-28T05:13:01.145Z,-0.20
2019-02-28T05:15:38.474Z,0.30
2019-02-28T05:18:09.049Z,1.00
2019-02-28T05:20:45.116Z,1.70
2019-02-28T05:23:10.598Z,2.20
2019-02-28T05:25:41.691Z,2.50
2019-02-28T05:28:12.450Z,2.80
2019-02-28T05:30:43.933Z,2.90
2019-02-28T05:33:15.305Z,3.00
2019-02-28T05:35:49.123Z,3.00
2019-02-28T05:38:20.737Z,2.90
2019-02-28T05:40:50.577Z,2.80
2019-02-28T05:43:20.629Z,2.70
2019-02-28T05:45:52.473Z,2.60
2019-02-28T05:48:25.370Z,2.40
2019-02-28T05:50:56.442Z,2.30
2019-02-28T05:53:27.827Z,2.10
2019-02-28T05:55:59.748Z,1.90
2019-02-28T05:58:40.193Z,1.70
2019-02-28T06:01:16.254Z,1.60
2019-02-28T06:03:44.670Z,1.40
2019-02-28T06:06:17.275Z,1.30
2019-02-28T06:08:44.962Z,1.20
2019-02-28T06:11:17.944Z,1.20
2019-02-28T06:13:49.639Z,1.30
2019-02-28T06:16:19.544Z,1.40
2019-02-28T06:18:49.589Z,1.60
2019-02-28T06:21:18.021Z,2.00
2019-02-28T06:23:54.445Z,2.60
2019-02-28T06:26:22.875Z,3.50
2019-02-28T06:28:51.610Z,4.50
2019-02-28T06:31:22.962Z,5.50
2019-02-28T06:34:05.668Z,6.40
2019-02-28T06:36:35.929Z,7.40
2019-02-28T06:39:09.801Z,8.50
2019-02-28T06:41:50.294Z,9.40
2019-02-28T06:44:27.051Z,10.30
2019-02-28T06:46:58.621Z,10.90
2019-02-28T06:49:32.274Z,11.60
2019-02-28T06:52:04.922Z,12.40
2019-02-28T06:54:42.065Z,13.30
2019-02-28T06:57:14.889Z,14.10
2019-02-28T06:59:43.305Z,14.80
2019-02-28T07:02:11.984Z,15.50
2019-02-28T07:04:52.338Z,16.10
2019-02-28T07:07:26.506Z,16.60
2019-02-28T07:09:54.922Z,17.00
2019-02-28T07:12:29.514Z,17.20
2019-02-28T07:14:59.294Z,17.50
2019-02-28T07:17:29.366Z,17.80
2019-02-28T07:20:04.266Z,18.00
2019-02-28T07:22:35.498Z,18.40
2019-02-28T07:25:09.462Z,18.70
2019-02-28T07:27:42.973Z,18.90
2019-02-28T07:30:19.616Z,19.10
2019-02-28T07:32:54.150Z,19.40
2019-02-28T07:35:25.664Z,19.80
2019-02-28T07:37:55.763Z,20.20
2019-02-28T07:40:24.237Z,20.50
2019-02-28T07:42:55.340Z,20.70
2019-02-28T07:45:29.696Z,20.80
2019-02-28T07:47:59.493Z,21.20
2019-02-28T07:50:32.475Z,21.50
2019-02-28T07:53:09.824Z,21.50
2019-02-28T07:55:41.338Z,21.70
2019-02-28T07:58:11.436Z,21.90
2019-02-28T08:00:45.758Z,22.20
2019-02-28T08:03:17.421Z,22.30
2019-02-28T08:05:45.860Z,22.50
2019-02-28T08:08:18.455Z,22.90
2019-02-28T08:10:55.906Z,23.30
2019-02-28T08:13:26.158Z,23.30
2019-02-28T08:15:56.842Z,23.20
2019-02-28T08:18:27.217Z,23.00
2019-02-28T08:20:58.134Z,22.70
2019-02-28T08:23:30.248Z,22.40
2019-02-28T08:26:02.522Z,22.40
2019-02-28T08:28:36.749Z,22.70
2019-02-28T08:31:04.480Z,23.00
2019-02-28T08:33:38.588Z,23.40
2019-02-28T08:36:12.675Z,23.50
2019-02-28T08:38:46.954Z,23.90
2019-02-28T08:41:18.600Z,23.80
2019-02-28T08:43:49.946Z,23.70
2019-02-28T08:46:19.214Z,23.50
2019-02-28T08:48:47.944Z,23.30
2019-02-28T08:51:16.403Z,23.10
2019-02-28T08:53:50.799Z,23.10
2019-02-28T08:56:20.675Z,23.50
2019-02-28T08:58:51.103Z,23.60
2019-02-28T09:01:21.177Z,23.90
2019-02-28T09:03:52.114Z,24.10
2019-02-28T09:06:37.937Z,23.80
2019-02-28T09:09:15.401Z,23.80
2019-02-28T09:11:44.221Z,24.30
2019-02-28T09:14:17.998Z,24.70
2019-02-28T09:16:59.113Z,25.10
2019-02-28T09:19:27.543Z,25.30
2019-02-28T09:22:03.866Z,25.60
2019-02-28T09:24:35.121Z,25.60
2019-02-28T09:27:04.078Z,25.70
2019-02-28T09:29:38.882Z,25.30
2019-02-28T09:32:13.609Z,25.30
2019-02-28T09:34:41.208Z,25.80
2019-02-28T09:37:09.943Z,26.40
2019-02-28T09:39:38.403Z,26.50
2019-02-28T09:42:14.862Z,26.60
2019-02-28T09:44:45.599Z,26.60
2019-02-28T09:47:16.758Z,27.10
2019-02-28T09:49:47.162Z,27.10
2019-02-28T09:52:17.307Z,27.30
2019-02-28T09:54:45.727Z,27.80
2019-02-28T09:57:15.404Z,28.00
2019-02-28T09:59:56.326Z,27.80
2019-02-28T10:02:26.406Z,27.60
2019-02-28T10:05:06.588Z,27.60
2019-02-28T10:07:41.630Z,27.70
2019-02-28T10:10:22.055Z,27.70
2019-02-28T10:12:53.566Z,27.60
2019-02-28T10:15:27.140Z,27.40
2019-02-28T10:17:57.208Z,26.90
2019-02-28T10:20:41.834Z,26.10
2019-02-28T10:23:09.106Z,25.90
2019-02-28T10:25:43.706Z,26.10
2019-02-28T10:28:16.619Z,26.50
2019-02-28T10:30:47.179Z,26.60
2019-02-28T10:33:17.176Z,26.00
2019-02-28T10:35:48.486Z,25.50
2019-02-28T10:38:18.567Z,24.90
2019-02-28T10:40:49.361Z,24.70
2019-02-28T10:43:20.046Z,24.90
2019-02-28T10:45:56.961Z,25.40
2019-02-28T10:48:29.758Z,25.80
2019-02-28T10:51:01.354Z,25.70
2019-02-28T10:53:36.229Z,25.80
2019-02-28T10:56:05.330Z,25.80
2019-02-28T10:58:33.755Z,26.00
2019-02-28T11:01:11.362Z,26.30
2019-02-28T11:03:44.894Z,26.50
2019-02-28T11:06:13.486Z,26.10
2019-02-28T11:08:47.455Z,25.60
2019-02-28T11:11:17.519Z,25.30
2019-02-28T11:13:47.582Z,25.00
2019-02-28T11:16:23.586Z,24.70
2019-02-28T11:18:51.929Z,24.70
2019-02-28T11:21:23.553Z,24.10
2019-02-28T11:23:54.688Z,23.70
2019-02-28T11:26:29.154Z,23.20
2019-02-28T11:29:02.874Z,22.60
2019-02-28T11:31:32.805Z,22.20
2019-02-28T11:34:04.362Z,22.10
2019-02-28T11:36:34.168Z,22.00
2019-02-28T11:39:04.966Z,21.90
2019-02-28T11:41:36.369Z,22.20
2019-02-28T11:44:04.792Z,22.60
2019-02-28T11:46:36.560Z,23.00
2019-02-28T11:49:13.786Z,23.10
2019-02-28T11:51:49.422Z,23.30
2019-02-28T11:54:18.479Z,23.30
2019-02-28T11:56:52.733Z,23.40
2019-02-28T11:59:25.326Z,22.80
2019-02-28T12:01:53.833Z,22.30
2019-02-28T12:04:32.450Z,22.20
2019-02-28T12:07:05.601Z,21.80
2019-02-28T12:09:35.651Z,21.60
2019-02-28T12:12:10.424Z,21.50
2019-02-28T12:14:38.981Z,21.10
2019-02-28T12:17:15.016Z,21.00
2019-02-28T12:19:47.590Z,20.90
2019-02-28T12:22:20.394Z,20.80
2019-02-28T12:24:50.459Z,20.50
2019-02-28T12:27:24.412Z,20.50
2019-02-28T12:30:10.582Z,20.30
2019-02-28T12:32:40.266Z,20.00
2019-02-28T12:35:12.662Z,19.20
2019-02-28T12:37:42.737Z,18.60
2019-02-28T12:40:31.941Z,18.30
2019-02-28T12:43:08.539Z,17.80
2019-02-28T12:45:38.076Z,17.60
2019-02-28T12:48:08.158Z,17.60
2019-02-28T12:50:36.573Z,17.80
2019-02-28T12:53:06.986Z,18.10
2019-02-28T12:55:39.119Z,18.30
2019-02-28T12:58:07.345Z,18.50
2019-02-28T13:00:37.811Z,18.70
2019-02-28T13:03:12.395Z,19.10
2019-02-28T13:05:40.885Z,19.20
2019-02-28T13:08:09.934Z,19.20
2019-02-28T13:10:42.180Z,19.30
2019-02-28T13:13:13.866Z,19.30
2019-02-28T13:15:46.839Z,19.20
2019-02-28T13:18:18.203Z,18.70
2019-02-28T13:20:49.683Z,18.00
2019-02-28T13:23:18.101Z,17.50
2019-02-28T13:25:51.835Z,17.20
2019-02-28T13:28:24.821Z,17.00
2019-02-28T13:30:53.418Z,16.70
2019-02-28T13:33:25.211Z,16.20
2019-02-28T13:35:56.953Z,15.90
2019-02-28T13:38:31.198Z,15.60
2019-02-28T13:41:02.391Z,15.30
2019-02-28T13:43:35.198Z,15.00
2019-02-28T13:46:04.095Z,14.80
2019-02-28T13:48:34.981Z,14.70
2019-02-28T13:51:08.507Z,14.60
2019-02-28T13:53:39.513Z,14.60
2019-02-28T13:56:11.169Z,14.60
2019-02-28T13:58:39.607Z,14.60
2019-02-28T14:01:10.720Z,14.60
2019-02-28T14:03:42.318Z,14.60
2019-02-28T14:06:18.876Z,14.60
2019-02-28T14:08:46.110Z,14.60
2019-02-28T14:11:20.114Z,14.60
2019-02-28T14:13:51.346Z,14.60
2019-02-28T14:16:26.395Z,14.50
2019-02-28T14:18:58.151Z,14.50
2019-02-28T14:21:26.737Z,14.50
2019-02-28T14:24:01.164Z,14.50
2019-02-28T14:26:32.243Z,14.40
2019-02-28T14:29:03.632Z,14.40
2019-02-28T14:31:32.971Z,14.40
2019-02-28T14:34:02.535Z,14.30
2019-02-28T14:36:35.737Z,14.30
2019-02-28T14:39:08.280Z,14.30
2019-02-28T14:41:41.963Z,14.10
2019-02-28T14:44:13.106Z,13.90
2019-02-28T14:46:44.293Z,13.70
2019-02-28T14:49:13.653Z,13.60
2019-02-28T14:51:42.349Z,13.40
2019-02-28T14:54:14.121Z,13.30
2019-02-28T14:56:54.389Z,13.30
2019-02-28T14:59:22.810Z,13.30
2019-02-28T15:02:00.205Z,13.40
2019-02-28T15:04:32.859Z,13.50
2019-02-28T15:07:04.355Z,13.80
2019-02-28T15:09:50.058Z,13.90
2019-02-28T15:12:24.600Z,14.00
2019-02-28T15:14:54.713Z,14.00
2019-02-28T15:17:24.806Z,13.90
2019-02-28T15:19:53.224Z,13.80
2019-02-28T15:22:30.981Z,13.60
2019-02-28T15:25:08.021Z,13.40
2019-02-28T15:27:39.880Z,13.20
2019-02-28T15:30:33.741Z,13.10
2019-02-28T15:33:04.725Z,13.10
2019-02-28T15:35:33.223Z,13.10
2019-02-28T15:38:01.661Z,13.10
2019-02-28T15:40:35.439Z,13.10
2019-02-28T15:43:04.038Z,13.10
2019-02-28T15:45:36.574Z,13.10
2019-02-28T15:48:05.743Z,13.00
2019-02-28T15:50:35.525Z,13.00
2019-02-28T15:53:04.325Z,12.90
2019-02-28T15:55:36.562Z,12.80
2019-02-28T15:58:05.859Z,12.70
2019-02-28T16:00:36.393Z,12.50
2019-02-28T16:03:05.617Z,12.40
2019-02-28T16:05:42.538Z,12.30
2019-02-28T16:08:10.815Z,12.20
2019-02-28T16:10:41.062Z,12.00
2019-02-28T16:13:09.491Z,11.90
2019-02-28T16:15:43.186Z,11.80
2019-02-28T16:18:18.737Z,11.70
2019-02-28T16:20:47.171Z,11.60
2019-02-28T16:23:16.016Z,11.50
2019-02-28T16:25:47.865Z,11.50
2019-02-28T16:28:17.287Z,11.40
2019-02-28T16:30:45.782Z,11.40
2019-02-28T16:33:14.213Z,11.40
2019-02-28T16:35:46.671Z,11.30
2019-02-28T16:38:19.861Z,11.30
2019-02-28T16:40:48.566Z,11.20
2019-02-28T16:43:17.410Z,11.10
2019-02-28T16:45:57.504Z,11.00
2019-02-28T16:48:26.194Z,11.00
2019-02-28T16:50:57.857Z,10.90
2019-02-28T16:53:32.566Z,10.80
2019-02-28T16:56:10.874Z,10.70
2019-02-28T16:58:40.382Z,10.60
2019-02-28T17:01:09.090Z,10.60
2019-02-28T17:03:38.416Z,10.60
2019-02-28T17:06:07.648Z,10.60
2019-02-28T17:08:37.805Z,10.50
2019-02-28T17:11:06.231Z,10.50
2019-02-28T17:13:38.872Z,10.40
2019-02-28T17:16:14.049Z,10.30
2019-02-28T17:18:48.470Z,10.30
2019-02-28T17:21:18.077Z,10.20
2019-02-28T17:23:49.681Z,10.20
2019-02-28T17:26:22.674Z,10.10
2019-02-28T17:28:58.430Z,10.00
2019-02-28T17:31:28.509Z,10.00
2019-02-28T17:33:58.539Z,10.00
2019-02-28T17:36:32.988Z,10.00
2019-02-28T17:39:01.713Z,10.00
2019-02-28T17:41:33.870Z,10.00
2019-02-28T17:44:28.806Z,9.90
2019-02-28T17:47:00.661Z,9.90
2019-02-28T17:49:49.823Z,9.90
2019-02-28T17:52:46.986Z,9.90
2019-02-28T17:55:34.810Z,9.90
2019-02-28T17:58:18.204Z,9.90
2019-02-28T18:01:13.831Z,9.90
2019-02-28T18:03:48.464Z,9.80
2019-02-28T18:06:33.189Z,9.80
2019-02-28T18:09:19.589Z,9.80
2019-02-28T18:12:23.506Z,9.80
2019-02-28T18:15:09.658Z,9.80
2019-02-28T18:17:41.302Z,9.80
2019-02-28T18:20:38.839Z,9.70
2019-02-28T18:23:21.091Z,9.70
2019-02-28T18:26:09.770Z,9.70
2019-02-28T18:28:58.034Z,9.70
2019-02-28T18:31:25.849Z,9.60
2019-02-28T18:33:58.302Z,9.60
2019-02-28T18:36:32.506Z,9.60
2019-02-28T18:39:04.802Z,9.60
2019-02-28T18:41:35.116Z,9.60
2019-02-28T18:44:04.962Z,9.50
2019-02-28T18:46:33.661Z,9.50
2019-02-28T18:49:14.077Z,9.50
2019-02-28T18:51:45.597Z,9.40
2019-02-28T18:54:16.274Z,9.40
2019-02-28T18:56:44.665Z,9.30
2019-02-28T18:59:16.352Z,9.30
2019-02-28T19:01:44.807Z,9.30
2019-02-28T19:04:13.227Z,9.30
2019-02-28T19:06:44.327Z,9.20
2019-02-28T19:09:24.644Z,9.20
2019-02-28T19:11:55.807Z,9.20
2019-02-28T19:14:24.246Z,9.20
2019-02-28T19:16:52.681Z,9.20
2019-02-28T19:19:32.585Z,9.20
2019-02-28T19:22:03.955Z,9.30
2019-02-28T19:24:32.409Z,9.30
2019-02-28T19:27:06.292Z,9.30
2019-02-28T19:29:34.779Z,9.30
2019-02-28T19:32:05.169Z,9.40
2019-02-28T19:34:41.989Z,9.40
2019-02-28T19:37:12.654Z,9.40
2019-02-28T19:39:42.912Z,9.40
2019-02-28T19:42:18.473Z,9.30
2019-02-28T19:44:47.107Z,9.30
2019-02-28T19:47:15.534Z,9.20
2019-02-28T19:49:45.604Z,9.10
2019-02-28T19:52:14.034Z,9.10
2019-02-28T19:54:45.650Z,9.10
2019-02-28T19:57:14.075Z,9.10
2019-02-28T19:59:48.438Z,9.20
2019-02-28T20:02:21.230Z,9.30
2019-02-28T20:04:55.363Z,9.50
2019-02-28T20:07:26.338Z,9.60
2019-02-28T20:09:56.293Z,9.70
2019-02-28T20:12:28.248Z,9.70
2019-02-28T20:14:56.692Z,9.80
2019-02-28T20:17:30.733Z,9.90
2019-02-28T20:20:05.174Z,9.90
2019-02-28T20:22:38.343Z,10.00
2019-02-28T20:25:05.413Z,10.00
2019-02-28T20:27:45.264Z,10.00
2019-02-28T20:30:18.234Z,10.00
2019-02-28T20:32:46.657Z,10.00
2019-02-28T20:35:15.529Z,10.00
2019-02-28T20:37:44.113Z,9.90
2019-02-28T20:40:15.388Z,9.90
2019-02-28T20:42:43.830Z,9.90
2019-02-28T20:45:17.028Z,9.80
2019-02-28T20:47:45.454Z,9.80
2019-02-28T20:50:26.882Z,9.70
2019-02-28T20:52:55.299Z,9.70
2019-02-28T20:55:26.389Z,9.70
2019-02-28T20:57:54.801Z,9.70
2019-02-28T21:00:24.858Z,9.60
2019-02-28T21:02:55.896Z,9.60
2019-02-28T21:05:32.489Z,9.60
2019-02-28T21:08:02.634Z,9.60
2019-02-28T21:10:32.699Z,9.50
2019-02-28T21:13:02.760Z,9.50
2019-02-28T21:15:33.737Z,9.40
2019-02-28T21:18:02.185Z,9.40
2019-02-28T21:20:30.629Z,9.30
2019-02-28T21:23:08.166Z,9.20
2019-02-28T21:25:41.133Z,9.20
2019-02-28T21:28:17.974Z,9.00
2019-02-28T21:30:46.414Z,8.90
2019-02-28T21:33:20.121Z,8.80
2019-02-28T21:35:51.466Z,8.70
2019-02-28T21:38:22.638Z,8.60
2019-02-28T21:40:53.776Z,8.50
2019-02-28T21:43:26.801Z,8.40
2019-02-28T21:45:59.421Z,8.30
2019-02-28T21:48:29.486Z,8.20
2019-02-28T21:50:59.620Z,8.20
2019-02-28T21:53:34.273Z,8.10
2019-02-28T21:56:09.810Z,8.10
2019-02-28T21:58:38.233Z,8.00
2019-02-28T22:01:08.566Z,8.00
2019-02-28T22:03:36.979Z,8.00
2019-02-28T22:06:11.005Z,8.00
2019-02-28T22:08:41.095Z,8.00
2019-02-28T22:11:14.215Z,7.90
2019-02-28T22:13:45.337Z,7.90
2019-02-28T22:16:25.111Z,7.90
2019-02-28T22:18:56.266Z,7.90
2019-02-28T22:21:35.209Z,7.90
2019-02-28T22:24:06.050Z,7.90
2019-02-28T22:26:40.262Z,7.90
2019-02-28T22:29:10.336Z,7.90
2019-02-28T22:31:52.386Z,7.90
2019-02-28T22:34:22.446Z,7.90
2019-02-28T22:36:55.086Z,8.00
2019-02-28T22:39:25.974Z,8.00
2019-02-28T22:41:54.654Z,8.00
2019-02-28T22:44:23.082Z,8.00
2019-02-28T22:46:57.542Z,8.00
2019-02-28T22:49:29.118Z,8.00
2019-02-28T22:52:00.488Z,8.00
2019-02-28T22:54:28.920Z,7.90
2019-02-28T22:57:03.127Z,7.90
2019-02-28T22:59:33.198Z,7.90
2019-02-28T23:02:01.627Z,7.90
2019-02-28T23:04:34.385Z,7.90
2019-02-28T23:07:08.538Z,7.90
2019-02-28T23:09:37.033Z,7.90
2019-02-28T23:12:08.530Z,7.90
2019-02-28T23:14:38.603Z,7.90
2019-02-28T23:17:10.087Z,7.90
2019-02-28T23:19:38.515Z,7.90
2019-02-28T23:22:11.231Z,7.90
2019-02-28T23:24:46.014Z,7.90
2019-02-28T23:27:23.618Z,7.90
2019-02-28T23:29:55.117Z,7.90
2019-02-28T23:32:37.141Z,7.90
2019-02-28T23:35:18.975Z,7.90
2019-02-28T23:37:49.035Z,7.80
2019-02-28T23:40:22.035Z,7.90
2019-02-28T23:42:53.309Z,7.80
2019-02-28T23:45:27.592Z,7.80
2019-02-28T23:47:58.927Z,7.80
2019-02-28T23:50:28.995Z,7.70
2019-02-28T23:52:59.054Z,7.70
2019-02-28T23:55:39.437Z,7.60
2019-02-28T23:58:07.863Z,7.50
